Time;durP1;ratioP1;P1;durP2;ratioP2;P2;SDS_P1;SDS_P2;PMS_P1;PMS_P2;Temp;Humidity;BMP_temperature;BMP_pressure;BME280_temperature;BME280_humidity;BME280_pressure;Samples;Min_cycle;Max_cycle;Signal;HPM_P1;HPM_P2
2023/05/04 00:02:20;;;;;;;13.10;7.65;;;;;;;14.51;82.90;101741.72;4917788;28;20086;-81
2023/05/04 00:04:52;;;;;;;12.25;7.78;;;;;;;14.78;83.48;101786.59;4926263;28;20082;-81
2023/05/04 00:07:19;;;;;;;10.90;7.63;;;;;;;14.83;82.79;101799.53;4900296;29;20143;-80
2023/05/04 00:09:52;;;;;;;12.77;7.72;;;;;;;14.56;82.81;101760.06;4892977;29;20051;-81
2023/05/04 00:12:24;;;;;;;12.25;7.50;;;;;;;14.48;83.80;101750.84;4897979;28;20102;-82
2023/05/04 00:14:53;;;;;;;10.30;7.78;;;;;;;14.37;84.15;101739.41;4896489;29;20101;-80
2023/05/04 00:17:21;;;;;;;13.50;8.07;;;;;;;14.67;83.28;101790.22;4931485;28;20669;-80
2023/05/04 00:19:48;;;;;;;11.02;8.95;;;;;;;13.40;83.42;101580.44;4886449;29;20055;-83
2023/05/04 00:22:15;;;;;;;12.68;9.10;;;;;;;14.04;83.37;101691.47;4918021;28;20039;-80
2023/05/04 00:24:46;;;;;;;13.25;8.18;;;;;;;14.42;83.45;101751.41;4897316;29;20500;-81
2023/05/04 00:27:19;;;;;;;12.98;8.65;;;;;;;14.46;84.26;101759.97;4908464;29;20047;-80
2023/05/04 00:29:46;;;;;;;17.70;7.75;;;;;;;14.56;84.41;101768.06;4898984;28;20335;-81
2023/05/04 00:32:13;;;;;;;11.82;7.68;;;;;;;14.61;84.04;101784.53;4915958;28;20651;-80
2023/05/04 00:34:40;;;;;;;9.23;8.00;;;;;;;14.57;83.89;101783.16;4907067;29;20071;-80
2023/05/04 00:37:08;;;;;;;12.15;7.68;;;;;;;14.55;83.84;101785.94;4884168;28;20461;-81
2023/05/04 00:39:35;;;;;;;11.52;8.02;;;;;;;13.75;84.17;101653.09;4906353;29;20807;-80
2023/05/04 00:42:05;;;;;;;9.50;7.38;;;;;;;14.46;83.27;101786.69;4913957;28;20421;-81
2023/05/04 00:44:40;;;;;;;15.32;7.70;;;;;;;14.38;83.66;101757.97;4922701;28;20048;-83
2023/05/04 00:47:08;;;;;;;15.00;6.75;;;;;;;14.09;83.86;101720.44;4909829;29;20264;-81
2023/05/04 00:49:35;;;;;;;13.10;7.18;;;;;;;14.23;84.44;101754.81;4907608;28;20075;-82
2023/05/04 00:52:04;;;;;;;11.25;7.07;;;;;;;14.21;84.24;101748.75;4867869;29;20912;-83
2023/05/04 00:54:31;;;;;;;9.70;7.00;;;;;;;14.17;84.10;101754.50;4905856;29;20550;-80
2023/05/04 00:57:07;;;;;;;11.00;7.50;;;;;;;14.09;84.25;101752.47;4897118;28;20250;-82
2023/05/04 00:59:51;;;;;;;16.58;6.85;;;;;;;14.07;84.37;101757.09;4863925;29;20051;-80
2023/05/04 01:02:27;;;;;;;11.85;7.95;;;;;;;14.14;84.71;101768.94;4886247;28;20085;-80
2023/05/04 01:04:54;;;;;;;9.35;7.95;;;;;;;13.90;85.00;101727.34;4901209;29;20299;-81
2023/05/04 01:07:57;;;;;;;15.27;7.85;;;;;;;14.16;85.00;101771.50;4893277;29;20067;-81
2023/05/04 01:10:38;;;;;;;9.57;8.57;;;;;;;14.08;85.20;101766.81;4912584;29;20082;-81
2023/05/04 01:13:24;;;;;;;12.40;7.75;;;;;;;13.82;85.78;101751.19;4909713;29;20051;-81
2023/05/04 01:15:52;;;;;;;11.10;7.63;;;;;;;13.90;85.83;101764.72;4899488;29;20146;-80
2023/05/04 01:18:28;;;;;;;8.60;6.95;;;;;;;13.43;85.89;101680.69;4904144;29;20245;-82
2023/05/04 01:20:55;;;;;;;8.55;7.57;;;;;;;13.47;85.69;101698.09;4902648;29;20051;-81
2023/05/04 01:23:22;;;;;;;8.82;7.55;;;;;;;13.75;85.89;101728.66;4904336;29;20053;-82
2023/05/04 01:25:58;;;;;;;8.40;7.38;;;;;;;14.01;85.70;101765.66;4883104;29;20472;-81
2023/05/04 01:28:46;;;;;;;10.40;7.57;;;;;;;13.11;84.99;101632.69;4896224;29;20414;-81
2023/05/04 01:31:20;;;;;;;12.63;8.32;;;;;;;13.67;85.58;101739.13;4926168;28;20054;-81
2023/05/04 01:33:52;;;;;;;14.23;7.47;;;;;;;12.96;85.41;101627.66;4913396;28;20079;-82
2023/05/04 01:36:21;;;;;;;;;;;;;;;13.77;85.92;101771.22;4892589;29;20603;-82
2023/05/04 01:38:56;;;;;;;7.45;6.75;;;;;;;13.79;86.31;101777.28;4909865;28;20049;-82
2023/05/04 01:41:28;;;;;;;10.95;7.05;;;;;;;13.58;86.68;101732.75;4912354;28;20411;-81
2023/05/04 01:43:56;;;;;;;12.23;7.43;;;;;;;13.27;86.57;101681.09;4911834;28;20047;-80
2023/05/04 01:46:23;;;;;;;8.20;7.18;;;;;;;13.40;86.08;101712.94;4938512;28;20441;-80
2023/05/04 01:48:53;;;;;;;9.43;7.68;;;;;;;13.72;86.12;101766.28;4914609;29;20051;-82
2023/05/04 01:51:27;;;;;;;9.05;7.22;;;;;;;13.74;86.10;101775.00;4887527;29;20075;-79
2023/05/04 01:54:00;;;;;;;12.63;7.63;;;;;;;13.14;85.68;101675.06;4928699;29;20623;-81
2023/05/04 01:56:26;;;;;;;10.18;7.68;;;;;;;13.50;85.94;101745.88;4918537;29;20288;-83
2023/05/04 01:58:53;;;;;;;8.25;7.32;;;;;;;13.55;86.00;101762.34;4906625;29;20058;-81
2023/05/04 02:01:20;;;;;;;9.15;7.28;;;;;;;13.67;86.26;101780.00;4919121;28;20134;-81
2023/05/04 02:03:47;;;;;;;7.68;6.85;;;;;;;13.62;86.13;101754.69;4954861;28;20138;-80
2023/05/04 02:06:16;;;;;;;10.23;7.50;;;;;;;13.76;85.53;101770.41;4921552;28;20043;-80
2023/05/04 02:08:43;;;;;;;9.55;7.20;;;;;;;13.14;85.55;101675.06;4938630;28;20106;-81
2023/05/04 02:11:10;;;;;;;10.15;7.25;;;;;;;13.55;85.77;101751.69;4925081;28;20051;-80
2023/05/04 02:13:37;;;;;;;7.40;6.50;;;;;;;13.52;85.94;101765.28;4901563;29;20055;-81
2023/05/04 02:16:10;;;;;;;10.35;7.20;;;;;;;13.45;85.55;101764.09;4924419;28;20077;-81
2023/05/04 02:18:42;;;;;;;7.65;6.47;;;;;;;13.59;85.78;101786.94;4929934;28;20085;-81
2023/05/04 02:21:09;;;;;;;8.15;6.32;;;;;;;13.45;86.06;101769.44;4919745;28;20055;-80
2023/05/04 02:23:36;;;;;;;8.65;7.57;;;;;;;13.53;85.89;101784.78;4932262;28;20131;-82
2023/05/04 02:26:03;;;;;;;8.45;6.78;;;;;;;13.29;86.29;101756.50;4932028;28;20106;-81
2023/05/04 02:28:29;;;;;;;8.93;7.10;;;;;;;13.39;86.46;101776.09;4914540;29;20465;-80
2023/05/04 02:30:56;;;;;;;8.23;7.20;;;;;;;13.45;86.16;101780.94;4879786;29;20051;-81
2023/05/04 02:33:28;;;;;;;9.02;6.68;;;;;;;13.35;85.51;101760.47;4892046;29;20098;-81
2023/05/04 02:35:59;;;;;;;10.00;6.53;;;;;;;13.45;85.40;101777.44;4908472;29;20356;-81
2023/05/04 02:38:26;;;;;;;7.63;6.43;;;;;;;13.20;85.24;101743.88;4894847;29;20058;-81
2023/05/04 02:40:52;;;;;;;9.25;6.60;;;;;;;13.43;85.38;101782.88;4872331;29;20051;-82
2023/05/04 02:43:19;;;;;;;9.60;6.43;;;;;;;13.39;85.28;101778.75;4895873;29;20055;-82
2023/05/04 02:45:47;;;;;;;7.57;6.82;;;;;;;13.41;85.43;101783.97;4894919;29;20371;-81
2023/05/04 02:48:14;;;;;;;7.50;6.72;;;;;;;13.29;85.81;101759.16;4906580;28;20199;-81
2023/05/04 02:50:45;;;;;;;7.20;6.50;;;;;;;13.13;85.44;101726.69;4893957;29;20380;-82
2023/05/04 02:53:12;;;;;;;9.48;7.10;;;;;;;13.44;85.57;101770.38;4902994;28;20529;-79
2023/05/04 02:55:42;;;;;;;7.82;6.90;;;;;;;13.67;84.67;101787.16;4878753;28;20059;-80
2023/05/04 02:58:12;;;;;;;7.57;6.88;;;;;;;13.60;83.29;101772.63;4890980;29;20280;-83
2023/05/04 03:00:57;;;;;;;13.27;7.45;;;;;;;13.53;84.45;101782.13;4894474;29;20712;-82
2023/05/04 03:03:23;;;;;;;9.40;6.75;;;;;;;13.34;84.40;101766.78;4924591;28;20055;-80
2023/05/04 03:05:55;;;;;;;8.75;6.97;;;;;;;13.14;85.01;101752.41;4885778;28;20241;-81
2023/05/04 03:08:28;;;;;;;8.90;6.93;;;;;;;13.33;85.05;101787.28;4894493;29;20047;-81
2023/05/04 03:10:56;;;;;;;9.52;7.13;;;;;;;13.11;84.79;101749.97;4909553;28;20062;-79
2023/05/04 03:13:23;;;;;;;11.60;7.30;;;;;;;13.26;84.77;101791.38;4903112;28;20091;-81
2023/05/04 03:15:54;;;;;;;8.07;6.45;;;;;;;13.23;84.93;101796.97;4894010;29;20102;-81
2023/05/04 03:18:27;;;;;;;8.35;6.90;;;;;;;13.00;84.89;101762.34;4901710;28;20490;-80
2023/05/04 03:20:54;;;;;;;7.07;6.38;;;;;;;12.89;85.03;101754.38;4920468;28;20043;-82
2023/05/04 03:23:21;;;;;;;9.30;5.93;;;;;;;13.30;85.06;101797.34;4892122;28;20134;-80
2023/05/04 03:25:48;;;;;;;7.78;6.88;;;;;;;12.40;84.20;101641.94;4903953;28;20054;-81
2023/05/04 03:28:15;;;;;;;7.10;5.80;;;;;;;13.03;84.16;101743.47;4885006;28;20043;-81
2023/05/04 03:30:44;;;;;;;7.40;6.53;;;;;;;13.25;83.84;101784.34;4917956;29;20537;-82
2023/05/04 03:33:11;;;;;;;7.70;6.80;;;;;;;13.28;84.07;101793.94;4908732;28;20090;-80
2023/05/04 03:35:39;;;;;;;9.07;6.85;;;;;;;12.98;84.43;101752.78;4901603;29;20043;-81
2023/05/04 03:38:06;;;;;;;7.68;6.60;;;;;;;12.48;83.50;101678.63;4916059;29;20393;-80
2023/05/04 03:40:38;;;;;;;7.47;6.78;;;;;;;13.04;83.89;101781.63;4917009;29;20043;-81
2023/05/04 03:43:05;;;;;;;7.05;6.15;;;;;;;13.04;84.40;101782.47;4915802;29;20471;-80
2023/05/04 03:45:31;;;;;;;9.68;6.55;;;;;;;12.59;84.83;101712.38;4902453;29;20055;-80
2023/05/04 03:48:01;;;;;;;7.40;6.35;;;;;;;13.00;85.00;101783.66;4903571;29;20047;-80
2023/05/04 03:50:31;;;;;;;7.80;6.88;;;;;;;12.47;84.79;101689.38;4932827;28;20493;-81
2023/05/04 03:53:08;;;;;;;8.10;7.28;;;;;;;12.72;84.95;101745.06;4937372;28;20067;-80
2023/05/04 03:55:38;;;;;;;8.07;7.03;;;;;;;12.78;84.61;101752.56;4914362;29;20051;-80
2023/05/04 03:58:08;;;;;;;9.18;6.72;;;;;;;12.89;84.79;101770.38;4890136;29;20043;-81
2023/05/04 04:00:34;;;;;;;7.57;6.55;;;;;;;12.89;84.56;101783.69;4897235;29;20051;-80
2023/05/04 04:03:02;;;;;;;8.70;6.15;;;;;;;12.94;84.70;101792.16;4918910;28;20047;-80
2023/05/04 04:05:34;;;;;;;7.90;7.13;;;;;;;12.89;84.16;101789.03;4898501;29;20083;-80
2023/05/04 04:08:05;;;;;;;8.25;6.90;;;;;;;12.57;84.71;101727.63;4937532;28;20059;-81
2023/05/04 04:10:35;;;;;;;7.70;6.88;;;;;;;12.67;84.77;101757.03;4922071;29;20046;-81
2023/05/04 04:13:02;;;;;;;8.50;6.68;;;;;;;12.90;85.34;101795.19;4925287;29;20066;-80
2023/05/04 04:15:29;;;;;;;7.75;6.35;;;;;;;12.89;85.28;101797.03;4910410;29;20126;-81
2023/05/04 04:17:55;;;;;;;8.10;7.25;;;;;;;12.86;85.76;101786.59;4915743;29;20043;-80
2023/05/04 04:20:25;;;;;;;9.50;7.05;;;;;;;12.93;85.17;101809.13;4916852;28;20049;-81
2023/05/04 04:22:55;;;;;;;10.88;6.82;;;;;;;12.86;85.23;101791.91;4910619;29;20441;-81
2023/05/04 04:25:23;;;;;;;12.32;6.93;;;;;;;12.87;85.25;101792.78;4923281;28;20047;-79
2023/05/04 04:27:50;;;;;;;8.13;6.95;;;;;;;12.52;85.01;101735.13;4918142;29;20092;-81
2023/05/04 04:30:20;;;;;;;11.13;7.15;;;;;;;12.71;84.85;101769.16;4903623;29;20576;-80
2023/05/04 04:32:57;;;;;;;10.52;7.10;;;;;;;12.92;84.31;101801.25;4913850;29;20058;-80
2023/05/04 04:35:24;;;;;;;7.78;7.07;;;;;;;12.77;84.70;101782.00;4932592;28;20070;-82
2023/05/04 04:37:51;;;;;;;7.85;7.05;;;;;;;12.75;84.47;101778.63;4904250;29;20566;-81
2023/05/04 04:40:21;;;;;;;7.70;6.90;;;;;;;12.70;85.10;101759.50;4930465;28;20055;-82
2023/05/04 04:42:51;;;;;;;9.35;7.13;;;;;;;12.94;84.95;101796.66;4933371;28;20150;-79
2023/05/04 04:45:19;;;;;;;11.60;7.97;;;;;;;13.01;84.96;101809.38;4934637;28;20048;-81
2023/05/04 04:47:51;;;;;;;14.80;7.97;;;;;;;12.89;85.11;101781.03;4918923;28;20109;-82
2023/05/04 04:50:25;;;;;;;10.25;7.45;;;;;;;12.43;84.37;101696.78;4908162;29;20044;-78
2023/05/04 04:52:51;;;;;;;9.43;7.15;;;;;;;13.07;84.22;101810.69;4902233;29;20477;-79
2023/05/04 04:55:19;;;;;;;12.52;7.70;;;;;;;13.01;84.64;101792.50;4917489;29;20053;-81
2023/05/04 04:57:45;;;;;;;9.18;7.22;;;;;;;13.23;84.57;101818.31;4903501;29;20138;-83
2023/05/04 05:00:13;;;;;;;8.43;7.07;;;;;;;13.14;84.17;101805.72;4940743;28;20266;-77
2023/05/04 05:02:40;;;;;;;10.75;7.32;;;;;;;13.18;83.88;101810.69;4942521;28;20114;-76
2023/05/04 05:05:11;;;;;;;16.88;15.20;;;;;;;13.33;83.11;101827.28;4931430;28;20078;-80
2023/05/04 05:07:38;;;;;;;15.73;14.25;;;;;;;13.38;83.72;101835.75;4944501;28;20083;-79
2023/05/04 05:10:08;;;;;;;11.07;8.80;;;;;;;13.22;83.02;101800.59;4929509;28;20402;-83
2023/05/04 05:12:35;;;;;;;15.70;8.25;;;;;;;13.28;82.91;101788.59;4934466;28;20375;-80
2023/05/04 05:15:04;;;;;;;10.10;7.68;;;;;;;13.47;82.74;101815.47;4940974;28;20322;-79
2023/05/04 05:17:31;;;;;;;13.38;8.98;;;;;;;13.68;83.18;101828.88;4923336;29;20059;-81
2023/05/04 05:19:57;;;;;;;10.55;8.07;;;;;;;13.61;82.82;101806.34;4926021;28;20087;-81
2023/05/04 05:22:24;;;;;;;9.13;8.25;;;;;;;13.64;82.30;101795.41;4933990;28;20057;-80
2023/05/04 05:24:52;;;;;;;11.73;8.73;;;;;;;13.88;82.13;101836.09;4936380;28;20051;-80
2023/05/04 05:27:19;;;;;;;11.18;9.10;;;;;;;13.39;82.12;101746.75;4920108;28;20043;-80
2023/05/04 05:29:46;;;;;;;14.38;11.15;;;;;;;13.96;82.48;101830.09;4921494;29;20106;-79
2023/05/04 05:32:13;;;;;;;12.88;10.48;;;;;;;13.82;81.33;101791.22;4927501;28;20047;-79
2023/05/04 05:34:39;;;;;;;12.77;10.05;;;;;;;13.98;80.95;101809.47;4938744;28;20055;-80
2023/05/04 05:37:12;;;;;;;13.57;8.90;;;;;;;14.14;80.68;101825.03;4942294;28;20063;-81
2023/05/04 05:39:38;;;;;;;11.70;8.65;;;;;;;13.73;80.62;101749.28;4940543;28;20062;-81
2023/05/04 05:42:05;;;;;;;17.23;8.70;;;;;;;14.21;80.31;101820.88;4935795;29;20091;-79
2023/05/04 05:44:36;;;;;;;11.80;8.07;;;;;;;14.40;79.83;101832.66;4931641;29;20118;-82
2023/05/04 05:47:03;;;;;;;13.23;8.90;;;;;;;14.47;80.61;101833.84;4934141;28;20387;-80
2023/05/04 05:49:30;;;;;;;11.15;8.45;;;;;;;14.41;79.92;101816.47;4938774;28;20071;-81
2023/05/04 05:51:57;;;;;;;11.20;8.93;;;;;;;14.43;80.39;101813.69;4955791;28;20069;-80
2023/05/04 05:54:25;;;;;;;15.52;10.07;;;;;;;14.49;79.87;101814.00;4956861;28;20046;-81
2023/05/04 05:56:52;;;;;;;15.68;9.23;;;;;;;14.68;79.70;101836.47;4944807;28;20395;-81
2023/05/04 05:59:19;;;;;;;10.85;8.90;;;;;;;14.77;79.49;101837.53;4918677;29;20355;-79
2023/05/04 06:01:45;;;;;;;14.85;10.25;;;;;;;14.83;79.13;101845.00;4922795;28;20271;-81
2023/05/04 06:04:12;;;;;;;11.25;9.15;;;;;;;14.77;78.76;101827.66;4937676;28;20057;-78
2023/05/04 06:06:40;;;;;;;17.83;9.98;;;;;;;14.96;78.47;101840.28;4912156;28;20058;-80
2023/05/04 06:09:12;;;;;;;19.67;9.85;;;;;;;14.82;78.30;101806.72;4933375;28;20054;-80
2023/05/04 06:11:43;;;;;;;10.05;8.13;;;;;;;15.17;75.97;101841.06;4931573;28;20066;-81
2023/05/04 06:14:11;;;;;;;;;;;;;;;15.23;74.84;101833.47;4941198;28;20418;-80
2023/05/04 06:16:40;;;;;;;10.50;8.55;;;;;;;15.26;75.65;101839.38;4928968;28;20004;-82
2023/05/04 06:19:07;;;;;;;9.80;7.95;;;;;;;15.37;73.03;101838.44;4934244;28;20047;-81
2023/05/04 06:21:37;;;;;;;9.25;7.63;;;;;;;15.44;73.48;101839.56;4938501;28;20074;-80
2023/05/04 06:24:08;;;;;;;9.65;7.53;;;;;;;15.15;72.76;101781.50;4934063;28;20129;-81
2023/05/04 06:26:35;;;;;;;7.85;7.03;;;;;;;15.63;72.80;101837.91;4932433;28;20046;-80
2023/05/04 06:29:05;;;;;;;8.73;6.80;;;;;;;15.68;72.15;101838.31;4927490;28;20149;-81
2023/05/04 06:31:32;;;;;;;8.20;6.70;;;;;;;15.12;71.38;101735.44;4919281;28;20053;-82
2023/05/04 06:33:58;;;;;;;9.10;6.82;;;;;;;15.79;71.41;101835.53;4940640;28;20661;-82
2023/05/04 06:36:25;;;;;;;9.20;6.47;;;;;;;15.86;70.98;101838.53;4921810;28;20557;-81
2023/05/04 06:38:54;;;;;;;7.38;6.57;;;;;;;15.41;69.36;101746.19;4926554;28;20053;-82
2023/05/04 06:41:23;;;;;;;6.72;6.03;;;;;;;16.00;68.79;101833.56;4936613;28;20050;-82
2023/05/04 06:43:50;;;;;;;10.68;6.45;;;;;;;16.08;68.20;101819.47;4940584;28;20394;-80
2023/05/04 06:46:17;;;;;;;10.48;8.43;;;;;;;16.19;67.91;101831.84;4931535;28;20444;-79
2023/05/04 06:48:44;;;;;;;7.70;6.32;;;;;;;16.22;67.79;101816.34;4923277;28;20138;-81
2023/05/04 06:51:11;;;;;;;8.23;6.20;;;;;;;16.32;67.37;101828.88;4923343;28;20097;-81
2023/05/04 06:53:38;;;;;;;7.32;6.63;;;;;;;16.33;66.83;101833.25;4916162;28;20054;-82
2023/05/04 06:56:06;;;;;;;8.23;7.25;;;;;;;16.29;66.69;101826.47;4935285;28;20231;-81
2023/05/04 06:58:33;;;;;;;9.07;6.72;;;;;;;16.13;68.02;101795.78;4931999;28;20054;-81
2023/05/04 07:01:01;;;;;;;10.60;6.97;;;;;;;16.23;67.04;101798.44;4940625;28;20342;-79
2023/05/04 07:03:29;;;;;;;8.77;6.93;;;;;;;16.49;66.59;101827.28;4937418;28;20300;-77
2023/05/04 07:05:56;;;;;;;8.95;6.70;;;;;;;16.32;67.15;101799.41;4919458;28;20051;-80
2023/05/04 07:08:23;;;;;;;7.63;6.93;;;;;;;16.17;68.37;101780.28;4931865;28;20051;-79
2023/05/04 07:10:53;;;;;;;8.02;6.90;;;;;;;16.01;67.19;101738.84;4913349;28;20058;-81
2023/05/04 07:13:23;;;;;;;8.18;6.40;;;;;;;16.69;65.83;101828.91;4939961;28;20074;-80
2023/05/04 07:15:50;;;;;;;7.72;7.03;;;;;;;16.62;63.67;101793.78;4918367;28;20077;-80
2023/05/04 07:18:17;;;;;;;8.52;6.50;;;;;;;16.85;63.84;101831.84;4938395;28;20473;-79
2023/05/04 07:20:50;;;;;;;7.28;6.57;;;;;;;16.55;63.46;101775.78;4919634;28;20050;-78
2023/05/04 07:23:27;;;;;;;7.20;6.50;;;;;;;16.73;64.04;101824.97;4939239;28;20050;-79
2023/05/04 07:25:54;;;;;;;9.25;6.88;;;;;;;16.56;64.60;101790.88;4914382;28;20039;-79
2023/05/04 07:28:21;;;;;;;7.97;7.18;;;;;;;16.61;64.82;101800.16;4940660;28;20113;-79
2023/05/04 07:30:47;;;;;;;15.75;7.38;;;;;;;16.59;65.14;101807.50;4933278;28;20047;-80
2023/05/04 07:33:14;;;;;;;7.45;6.70;;;;;;;16.88;64.93;101828.03;4940337;28;20051;-82
2023/05/04 07:35:41;;;;;;;8.02;6.75;;;;;;;16.82;65.23;101829.47;4944302;28;20527;-82
2023/05/04 07:38:11;;;;;;;10.32;7.40;;;;;;;16.90;65.54;101823.38;4911800;28;20047;-81
2023/05/04 07:40:38;;;;;;;12.77;7.20;;;;;;;16.33;64.96;101712.66;4912746;28;20133;-80
2023/05/04 07:43:13;;;;;;;9.98;7.65;;;;;;;17.03;64.04;101825.69;4942721;28;20065;-82
2023/05/04 07:45:40;;;;;;;10.82;6.95;;;;;;;16.48;64.45;101743.38;4942329;28;20585;-82
2023/05/04 07:48:07;;;;;;;10.20;8.50;;;;;;;16.32;64.40;101719.03;4945481;28;20058;-82
2023/05/04 07:50:34;;;;;;;9.75;7.97;;;;;;;17.08;64.69;101828.78;4935869;28;20098;-82
2023/05/04 07:53:02;;;;;;;9.38;8.40;;;;;;;16.45;63.44;101725.72;4932849;28;20050;-78
2023/05/04 07:55:31;;;;;;;10.52;7.90;;;;;;;17.07;64.12;101824.41;4944564;28;20054;-80
2023/05/04 07:58:08;;;;;;;9.35;8.18;;;;;;;16.87;64.51;101799.53;4948961;28;20069;-80
2023/05/04 08:00:39;;;;;;;10.43;8.48;;;;;;;16.86;64.32;101779.88;4932844;28;20364;-80
2023/05/04 08:03:12;;;;;;;10.02;8.32;;;;;;;16.99;64.13;101805.53;4924320;29;20432;-78
2023/05/04 08:05:45;;;;;;;9.98;8.98;;;;;;;17.09;63.95;101836.69;4906969;28;20584;-81
2023/05/04 08:08:12;;;;;;;9.65;8.00;;;;;;;17.01;64.08;101807.06;4923929;28;20047;-78
2023/05/04 08:10:43;;;;;;;9.75;7.85;;;;;;;16.72;65.01;101740.13;4928615;29;20106;-78
2023/05/04 08:13:09;;;;;;;12.75;7.78;;;;;;;17.27;65.34;101817.94;4923131;29;20051;-79
2023/05/04 08:15:36;;;;;;;11.43;7.93;;;;;;;17.14;64.00;101792.47;4921772;29;20303;-80
2023/05/04 08:18:03;;;;;;;10.07;7.95;;;;;;;17.34;63.94;101814.66;4942080;28;20606;-79
2023/05/04 08:20:31;;;;;;;10.23;8.27;;;;;;;17.35;63.41;101817.16;4909293;28;20145;-78
2023/05/04 08:23:00;;;;;;;14.10;8.70;;;;;;;17.35;62.83;101806.44;4930748;28;20256;-78
2023/05/04 08:25:32;;;;;;;9.07;8.07;;;;;;;17.74;62.15;101824.94;4925462;28;20337;-78
2023/05/04 08:27:59;;;;;;;13.60;8.70;;;;;;;17.29;61.47;101759.59;4903743;29;20059;-79
2023/05/04 08:30:27;;;;;;;13.30;7.53;;;;;;;17.86;60.38;101839.84;4922841;29;20111;-80
2023/05/04 08:32:56;;;;;;;11.70;8.38;;;;;;;17.86;60.20;101833.66;4922061;29;20367;-79
2023/05/04 08:35:26;;;;;;;11.10;9.10;;;;;;;17.87;60.47;101833.50;4915540;29;20073;-80
2023/05/04 08:37:55;;;;;;;11.57;9.05;;;;;;;17.89;60.24;101841.41;4912479;28;20584;-80
2023/05/04 08:40:23;;;;;;;10.82;9.10;;;;;;;17.72;60.07;101806.31;4913546;29;20493;-81
2023/05/04 08:42:52;;;;;;;13.63;9.15;;;;;;;17.87;60.53;101830.81;4914299;29;20426;-81
2023/05/04 08:45:20;;;;;;;14.80;8.88;;;;;;;17.76;61.12;101800.63;4932005;28;20069;-80
2023/05/04 08:47:47;;;;;;;9.95;9.00;;;;;;;17.84;60.15;101800.72;4918374;28;20049;-79
2023/05/04 08:50:15;;;;;;;11.55;8.48;;;;;;;17.92;60.63;101807.00;4894369;29;20052;-80
2023/05/04 08:52:46;;;;;;;8.10;7.30;;;;;;;18.18;60.44;101848.34;4910607;29;20415;-79
2023/05/04 08:55:17;;;;;;;11.10;9.02;;;;;;;17.99;59.41;101801.88;4940799;28;20059;-79
2023/05/04 08:57:44;;;;;;;11.43;10.23;;;;;;;18.29;60.00;101822.06;4903005;29;20070;-79
2023/05/04 09:00:15;;;;;;;12.82;9.20;;;;;;;18.23;59.83;101814.66;4944858;28;20059;-79
2023/05/04 09:02:43;;;;;;;11.65;9.65;;;;;;;18.55;59.07;101819.38;4916178;28;20146;-80
2023/05/04 09:05:10;;;;;;;9.07;8.13;;;;;;;18.61;60.18;101839.41;4937458;28;20532;-80
2023/05/04 09:07:37;;;;;;;10.98;8.70;;;;;;;18.66;60.79;101836.25;4911572;28;20444;-83
2023/05/04 09:10:08;;;;;;;13.20;9.48;;;;;;;18.81;59.37;101844.59;4926371;28;20496;-83
2023/05/04 09:12:37;;;;;;;10.90;9.60;;;;;;;18.75;58.97;101813.78;4905309;28;20502;-83
2023/05/04 09:15:19;;;;;;;12.63;9.63;;;;;;;18.88;57.89;101835.72;4914744;28;20046;-82
2023/05/04 09:18:04;;;;;;;10.32;9.02;;;;;;;18.23;57.20;101717.03;4918842;28;20047;-82
2023/05/04 09:20:52;;;;;;;14.60;9.68;;;;;;;18.94;57.50;101821.63;4899286;29;20414;-82
2023/05/04 09:23:21;;;;;;;14.27;9.70;;;;;;;19.00;57.89;101823.69;4925675;28;20074;-81
2023/05/04 09:25:55;;;;;;;14.05;11.32;;;;;;;19.09;57.38;101829.09;4908584;28;20074;-81
2023/05/04 09:28:38;;;;;;;11.50;9.88;;;;;;;18.92;57.70;101785.97;4909105;28;20154;-81
2023/05/04 09:31:13;;;;;;;11.05;9.85;;;;;;;19.33;57.75;101842.63;4908449;29;20465;-82
2023/05/04 09:33:41;;;;;;;11.98;9.88;;;;;;;19.13;57.88;101785.53;4910221;29;20106;-81
2023/05/04 09:36:18;;;;;;;13.88;10.82;;;;;;;19.67;57.82;101827.38;4914978;29;20074;-82
2023/05/04 09:38:45;;;;;;;14.40;11.75;;;;;;;19.70;57.06;101825.22;4884275;29;20051;-82
2023/05/04 09:41:11;;;;;;;11.93;10.02;;;;;;;19.73;57.74;101824.88;4907393;29;20086;-82
2023/05/04 09:43:40;;;;;;;15.93;9.85;;;;;;;19.61;57.30;101773.19;4917128;29;20142;-82
2023/05/04 09:46:15;;;;;;;11.07;9.57;;;;;;;19.94;56.29;101815.47;4919068;28;20058;-83
2023/05/04 09:48:53;;;;;;;16.92;10.77;;;;;;;20.09;55.78;101821.84;4903696;28;20095;-82
2023/05/04 09:51:32;;;;;;;12.05;10.32;;;;;;;20.18;55.86;101818.16;4868800;29;20196;-82
2023/05/04 09:54:07;;;;;;;12.32;10.93;;;;;;;20.39;54.60;101814.06;4915359;29;20062;-82
2023/05/04 09:56:48;;;;;;;12.15;10.90;;;;;;;20.49;54.64;101822.84;4921064;28;20043;-82
2023/05/04 09:59:19;;;;;;;14.15;11.07;;;;;;;20.35;55.01;101791.16;4879593;28;20505;-82
2023/05/04 10:01:46;;;;;;;12.35;9.90;;;;;;;20.65;54.02;101820.09;4906642;28;20456;-82
2023/05/04 10:04:14;;;;;;;11.48;9.93;;;;;;;20.88;53.30;101811.28;4923418;28;20054;-82
2023/05/04 10:06:42;;;;;;;13.50;9.68;;;;;;;20.09;53.80;101667.38;4913907;28;20050;-83
2023/05/04 10:09:10;;;;;;;10.40;8.98;;;;;;;21.11;54.30;101798.66;4940449;28;20101;-82
2023/05/04 10:11:41;;;;;;;13.18;8.52;;;;;;;21.31;53.11;101796.38;4934851;28;20280;-81
2023/05/04 10:14:08;;;;;;;9.77;7.78;;;;;;;21.33;51.80;101798.88;4914930;28;20141;-80
2023/05/04 10:17:09;;;;;;;10.27;9.18;;;;;;;21.27;51.47;101780.69;4911669;28;20059;-81
2023/05/04 10:19:52;;;;;;;10.48;8.02;;;;;;;21.35;52.09;101757.16;4896457;29;20066;-80
2023/05/04 10:22:59;;;;;;;13.15;10.20;;;;;;;21.72;51.76;101795.25;4922119;29;20261;-82
2023/05/04 10:25:38;;;;;;;12.05;10.20;;;;;;;21.71;51.01;101788.19;4930122;29;20542;-80
2023/05/04 10:28:26;;;;;;;9.57;8.57;;;;;;;21.95;50.39;101798.78;4929419;28;20051;-81
2023/05/04 10:30:58;;;;;;;8.77;7.72;;;;;;;22.04;50.43;101796.00;4937661;28;20050;-82
2023/05/04 10:33:25;;;;;;;10.15;7.97;;;;;;;22.19;49.33;101802.28;4936586;28;20063;-81
2023/05/04 10:35:53;;;;;;;11.02;8.45;;;;;;;22.20;49.66;101774.25;4922411;28;20317;-80
2023/05/04 10:38:33;;;;;;;10.57;8.07;;;;;;;22.43;48.81;101793.13;4931932;28;20047;-80
2023/05/04 10:41:18;;;;;;;;;;;;;;;21.98;48.86;101711.91;4926177;28;20449;-81
2023/05/04 10:43:51;;;;;;;18.65;13.40;;;;;;;22.67;48.45;101786.59;4930486;28;19937;-83
2023/05/04 10:46:22;;;;;;;11.85;9.02;;;;;;;22.62;48.64;101748.41;4901526;28;20420;-83
2023/05/04 10:48:50;;;;;;;13.65;9.43;;;;;;;22.91;48.43;101773.75;4904510;28;20055;-82
2023/05/04 10:51:26;;;;;;;13.88;11.45;;;;;;;23.10;46.25;101766.94;4914763;28;20579;-83
2023/05/04 10:54:16;;;;;;;11.73;9.00;;;;;;;23.27;46.07;101783.78;4913224;28;20233;-85
2023/05/04 10:56:43;;;;;;;10.80;7.28;;;;;;;23.51;46.62;101786.13;4913162;28;20074;-83
2023/05/04 10:59:10;;;;;;;11.27;8.18;;;;;;;23.72;45.30;101781.75;4918934;28;20384;-83
2023/05/04 11:01:43;;;;;;;10.63;7.55;;;;;;;22.52;44.06;101582.78;4908591;28;20060;-82
2023/05/04 11:04:21;;;;;;;8.25;7.45;;;;;;;23.81;45.17;101765.19;4930812;28;20043;-85
2023/05/04 11:06:58;;;;;;;10.57;6.97;;;;;;;24.09;44.11;101767.88;4938303;28;20289;-83
2023/05/04 11:09:27;;;;;;;8.52;7.57;;;;;;;23.79;43.94;101734.72;4935304;28;20047;-83
2023/05/04 11:11:56;;;;;;;9.60;6.65;;;;;;;24.09;43.45;101762.47;4941066;28;20057;-83
2023/05/04 11:14:27;;;;;;;8.38;7.45;;;;;;;24.19;43.57;101753.13;4931558;28;20050;-83
2023/05/04 11:17:14;;;;;;;8.35;7.28;;;;;;;24.08;42.69;101758.09;4929157;28;20070;-82
2023/05/04 11:19:48;;;;;;;8.95;8.10;;;;;;;24.09;42.57;101767.06;4936263;28;20388;-83
2023/05/04 11:22:16;;;;;;;8.10;7.32;;;;;;;24.01;43.69;101759.91;4946811;28;20715;-81
2023/05/04 11:24:45;;;;;;;5.18;4.68;;;;;;;23.65;46.80;101770.84;4919952;28;20062;-82
2023/05/04 11:27:29;;;;;;;2.30;2.10;;;;;;;23.14;47.96;101730.31;4924430;28;20043;-80
2023/05/04 11:30:00;;;;;;;4.43;3.92;;;;;;;21.72;49.13;101573.66;4922643;28;20290;-81
2023/05/04 11:32:45;;;;;;;5.65;4.97;;;;;;;22.24;50.34;101758.50;4936700;28;20051;-82
2023/05/04 11:35:24;;;;;;;5.53;5.03;;;;;;;22.07;50.66;101745.13;4931446;28;20434;-81
2023/05/04 11:37:52;;;;;;;4.50;4.05;;;;;;;21.97;49.99;101760.75;4950218;28;20253;-81